Time;durP1;ratioP1;P1;durP2;ratioP2;P2;SDS_P1;SDS_P2;PMS_P1;PMS_P2;Temp;Humidity;BMP_temperature;BMP_pressure;BME280_temperature;BME280_humidity;BME280_pressure;Samples;Min_cycle;Max_cycle;Signal;HPM_P1;HPM_P2
2021/07/28 00:02:06;;;;;;;9.23;8.43;;;19.50;99.90;;;;;;4994108;28;20164;-70
2021/07/28 00:04:33;;;;;;;9.23;8.43;;;19.50;99.90;;;;;;4977435;28;20167;-70
2021/07/28 00:06:59;;;;;;;8.03;7.30;;;19.40;99.90;;;;;;4994092;28;20725;-70
2021/07/28 00:09:25;;;;;;;9.30;6.97;;;19.50;99.90;;;;;;4994067;28;20497;-70
2021/07/28 00:11:50;;;;;;;7.77;7.10;;;19.50;99.90;;;;;;4994042;28;20171;-70
2021/07/28 00:14:16;;;;;;;8.97;8.07;;;19.50;99.90;;;;;;4994044;28;20175;-70
2021/07/28 00:16:42;;;;;;;8.10;7.47;;;19.50;99.90;;;;;;4994019;28;20182;-70
2021/07/28 00:19:12;;;;;;;8.33;7.63;;;19.50;99.90;;;;;;4993900;28;20775;-70
2021/07/28 00:24:22;;;;;;;8.20;7.40;;;19.50;99.90;;;;;;4998058;28;20402;-70
2021/07/28 00:26:48;;;;;;;7.87;7.27;;;19.40;99.90;;;;;;4997600;28;20410;-70
2021/07/28 00:29:14;;;;;;;7.70;7.00;;;19.40;99.90;;;;;;4997693;28;20277;-70
2021/07/28 00:31:39;;;;;;;7.30;6.60;;;19.40;99.90;;;;;;4997641;28;20551;-70
2021/07/28 00:34:05;;;;;;;8.10;7.40;;;19.40;99.90;;;;;;4997551;28;20167;-70
2021/07/28 00:36:31;;;;;;;7.43;6.53;;;19.40;99.90;;;;;;4997453;28;20168;-70
2021/07/28 00:38:56;;;;;;;8.30;7.50;;;19.40;99.90;;;;;;4997378;28;20245;-70
2021/07/28 00:41:22;;;;;;;8.63;7.83;;;19.30;99.90;;;;;;4997399;28;20203;-70
2021/07/28 00:43:48;;;;;;;8.67;7.77;;;19.30;99.90;;;;;;4997414;28;20250;-70
2021/07/28 00:46:13;;;;;;;8.23;7.43;;;19.20;99.90;;;;;;4997289;28;20234;-70
2021/07/28 00:48:39;;;;;;;7.83;7.13;;;19.20;99.90;;;;;;4997249;28;20214;-70
2021/07/28 00:51:05;;;;;;;6.97;6.37;;;19.20;99.90;;;;;;4997530;28;20225;-70
2021/07/28 00:53:32;;;;;;;7.80;7.10;;;19.20;99.90;;;;;;4997269;28;20632;-70
2021/07/28 00:56:00;;;;;;;7.13;6.53;;;19.20;99.90;;;;;;4996996;28;20476;-70
2021/07/28 00:58:26;;;;;;;8.23;7.50;;;19.10;99.90;;;;;;4997044;28;20464;-70
2021/07/28 01:00:51;;;;;;;8.10;7.40;;;19.10;99.90;;;;;;4997005;28;20736;-70
2021/07/28 01:03:17;;;;;;;7.87;7.13;;;19.10;99.90;;;;;;4997004;28;20164;-70
2021/07/28 01:05:43;;;;;;;7.90;7.20;;;19.00;99.90;;;;;;4996813;28;20599;-70
2021/07/28 01:08:09;;;;;;;8.70;7.90;;;19.00;99.90;;;;;;4997178;28;20406;-70
2021/07/28 01:10:36;;;;;;;7.90;7.20;;;19.00;99.90;;;;;;4997482;28;20493;-70
2021/07/28 01:13:06;;;;;;;8.00;7.30;;;18.90;99.90;;;;;;4996881;28;20403;-70
2021/07/28 01:15:33;;;;;;;6.60;6.10;;;18.90;99.90;;;;;;4996802;28;20391;-70
2021/07/28 01:18:04;;;;;;;8.37;7.60;;;18.90;99.90;;;;;;4996891;28;20423;-70
2021/07/28 01:20:41;;;;;;;8.00;7.30;;;18.90;99.90;;;;;;4996729;28;20407;-70
2021/07/28 01:23:20;;;;;;;8.00;7.33;;;18.90;99.90;;;;;;4996718;28;20393;-70
2021/07/28 01:25:47;;;;;;;8.53;7.73;;;18.90;99.90;;;;;;4996733;28;20390;-71
2021/07/28 01:28:13;;;;;;;8.50;7.80;;;18.80;99.90;;;;;;4996615;28;20452;-70
2021/07/28 01:30:39;;;;;;;8.33;7.63;;;18.80;99.90;;;;;;4996529;28;20421;-70
2021/07/28 01:33:06;;;;;;;10.03;7.80;;;18.80;99.90;;;;;;4996472;28;20499;-71
2021/07/28 01:35:35;;;;;;;8.53;7.73;;;18.80;99.90;;;;;;4996505;28;20172;-71
2021/07/28 01:38:01;;;;;;;7.60;6.97;;;18.80;99.90;;;;;;4996161;28;20413;-70
2021/07/28 01:40:27;;;;;;;8.17;7.43;;;18.80;99.90;;;;;;4996351;28;20425;-70
2021/07/28 01:42:52;;;;;;;7.90;7.10;;;18.80;99.90;;;;;;4996242;28;20414;-70
2021/07/28 01:45:18;;;;;;;8.00;7.20;;;18.70;99.90;;;;;;4996299;28;20182;-70
2021/07/28 01:47:45;;;;;;;8.47;7.77;;;18.70;99.90;;;;;;4996017;28;20177;-70
2021/07/28 01:50:11;;;;;;;8.93;7.83;;;18.70;99.90;;;;;;4995983;28;20199;-70
2021/07/28 01:52:39;;;;;;;8.60;7.73;;;18.70;99.90;;;;;;4996105;28;20433;-70
2021/07/28 01:55:07;;;;;;;8.33;7.53;;;18.70;99.90;;;;;;4996091;28;20410;-70
2021/07/28 01:57:33;;;;;;;8.60;7.70;;;18.70;99.90;;;;;;4995968;28;20410;-70
2021/07/28 02:00:00;;;;;;;8.37;7.57;;;18.70;99.90;;;;;;4996104;28;20457;-70
2021/07/28 02:02:31;;;;;;;8.43;7.63;;;18.70;99.90;;;;;;4996142;28;20406;-70
2021/07/28 02:04:58;;;;;;;9.30;8.13;;;18.70;99.90;;;;;;4995861;28;20397;-70
2021/07/28 02:07:23;;;;;;;7.53;6.90;;;18.60;99.90;;;;;;4996095;28;20425;-70
2021/07/28 02:09:49;;;;;;;8.93;7.37;;;18.70;99.90;;;;;;4995847;28;20497;-70
2021/07/28 02:12:15;;;;;;;10.20;8.00;;;18.60;99.90;;;;;;4995752;28;20182;-70
2021/07/28 02:14:41;;;;;;;8.30;7.50;;;18.70;99.90;;;;;;4995921;28;20620;-70
2021/07/28 02:17:06;;;;;;;8.40;7.60;;;18.60;99.90;;;;;;4995672;28;20171;-70
2021/07/28 02:19:32;;;;;;;10.20;8.30;;;18.60;99.90;;;;;;4995482;28;20195;-70
2021/07/28 02:21:57;;;;;;;9.27;8.33;;;18.60;99.90;;;;;;4995556;28;20171;-70
2021/07/28 02:24:23;;;;;;;8.70;7.80;;;18.60;99.90;;;;;;4995532;28;20605;-70
2021/07/28 02:26:48;;;;;;;7.60;6.87;;;18.60;99.90;;;;;;4995415;28;20164;-70
2021/07/28 02:29:14;;;;;;;8.83;8.03;;;18.50;99.90;;;;;;4995343;28;20183;-70
2021/07/28 02:31:40;;;;;;;9.20;8.30;;;18.50;99.90;;;;;;4995346;28;20245;-70
2021/07/28 02:34:05;;;;;;;8.47;7.57;;;18.50;99.90;;;;;;4995382;28;20556;-70
2021/07/28 02:36:31;;;;;;;11.10;8.10;;;18.50;99.90;;;;;;4995274;28;20175;-70
2021/07/28 02:38:56;;;;;;;8.93;8.03;;;18.50;99.90;;;;;;4995132;28;20187;-70
2021/07/28 02:41:22;;;;;;;7.90;7.10;;;18.50;99.90;;;;;;4995178;28;20172;-70
2021/07/28 02:43:48;;;;;;;7.63;7.00;;;18.50;99.90;;;;;;4994722;28;20171;-70
2021/07/28 02:46:13;;;;;;;8.93;8.20;;;18.50;99.90;;;;;;4995085;28;20254;-70
2021/07/28 02:48:39;;;;;;;7.63;7.03;;;18.50;99.90;;;;;;4995060;28;20579;-70
2021/07/28 02:51:04;;;;;;;7.77;7.10;;;18.50;99.90;;;;;;4995033;28;20234;-70
2021/07/28 02:53:30;;;;;;;9.00;7.37;;;18.50;99.90;;;;;;4995010;28;20221;-70
2021/07/28 02:55:56;;;;;;;8.33;7.40;;;18.50;99.90;;;;;;4994965;28;20508;-70
2021/07/28 02:58:21;;;;;;;8.07;7.10;;;18.50;99.90;;;;;;4995169;28;20187;-70
2021/07/28 03:00:47;;;;;;;6.90;6.40;;;18.50;99.90;;;;;;4994855;28;20193;-70
2021/07/28 03:03:12;;;;;;;7.07;6.47;;;18.40;99.90;;;;;;4994877;28;20496;-70
2021/07/28 03:05:38;;;;;;;8.03;6.33;;;18.40;99.90;;;;;;4994787;28;20163;-70
2021/07/28 03:08:04;;;;;;;7.07;6.37;;;18.40;99.90;;;;;;4994724;28;20164;-70
2021/07/28 03:10:30;;;;;;;8.10;6.80;;;18.40;99.90;;;;;;4994695;28;20265;-70
2021/07/28 03:12:55;;;;;;;6.40;5.63;;;18.40;99.90;;;;;;4994654;28;20896;-70
2021/07/28 03:15:21;;;;;;;9.40;6.53;;;18.30;99.90;;;;;;4994646;28;20167;-70
2021/07/28 03:17:47;;;;;;;7.23;6.47;;;18.30;99.90;;;;;;4994591;28;20642;-70
2021/07/28 03:20:12;;;;;;;7.83;7.13;;;18.30;99.90;;;;;;4994571;28;20261;-70
2021/07/28 03:22:38;;;;;;;6.77;6.17;;;18.30;99.90;;;;;;4994560;28;20544;-70
2021/07/28 03:25:04;;;;;;;7.00;6.37;;;18.30;99.90;;;;;;4994519;28;20739;-70
2021/07/28 03:27:30;;;;;;;7.80;7.10;;;18.20;99.90;;;;;;4994498;28;20163;-70
2021/07/28 03:29:55;;;;;;;6.60;6.10;;;18.30;99.90;;;;;;4994516;28;20831;-70
2021/07/28 03:32:21;;;;;;;7.00;6.30;;;18.20;99.90;;;;;;4994470;28;20616;-70
2021/07/28 03:34:47;;;;;;;6.53;5.93;;;18.30;99.90;;;;;;4994467;28;20254;-70
2021/07/28 03:37:12;;;;;;;8.20;7.40;;;18.20;99.90;;;;;;4994357;28;20171;-70
2021/07/28 03:39:38;;;;;;;8.03;7.10;;;18.30;99.90;;;;;;4994372;28;20187;-70
2021/07/28 03:42:04;;;;;;;7.23;6.53;;;18.20;99.90;;;;;;4994331;28;20171;-70
2021/07/28 03:44:29;;;;;;;8.90;6.70;;;18.20;99.90;;;;;;4994347;28;20191;-70
2021/07/28 03:46:55;;;;;;;6.10;5.60;;;18.20;99.90;;;;;;4994268;28;20406;-70
2021/07/28 03:49:21;;;;;;;7.33;6.23;;;18.20;99.90;;;;;;4994207;28;20191;-70
2021/07/28 03:51:46;;;;;;;7.80;7.00;;;18.20;99.90;;;;;;4994175;28;20687;-70
2021/07/28 03:54:12;;;;;;;6.20;5.67;;;18.20;99.90;;;;;;4994280;28;20230;-70
2021/07/28 03:56:38;;;;;;;7.30;6.50;;;18.20;99.90;;;;;;4996048;28;20593;-70
2021/07/28 03:59:03;;;;;;;7.87;7.17;;;18.20;99.90;;;;;;4998120;28;20187;-70
2021/07/28 04:01:29;;;;;;;6.77;6.07;;;18.20;99.90;;;;;;4998117;28;20172;-70
2021/07/28 04:03:55;;;;;;;6.70;6.10;;;18.10;99.90;;;;;;4998030;28;20179;-70
2021/07/28 04:06:20;;;;;;;7.13;6.43;;;18.10;99.90;;;;;;4998097;28;20533;-70
2021/07/28 04:08:46;;;;;;;6.97;6.23;;;18.10;99.90;;;;;;4998025;28;20574;-70
2021/07/28 04:11:12;;;;;;;7.07;6.37;;;18.00;99.90;;;;;;4998076;28;20211;-70
2021/07/28 04:13:37;;;;;;;7.10;6.17;;;18.00;99.90;;;;;;4997732;28;20229;-70
2021/07/28 04:16:03;;;;;;;7.13;6.40;;;18.00;99.90;;;;;;4998231;28;20179;-70
2021/07/28 04:18:29;;;;;;;6.40;5.80;;;17.90;99.90;;;;;;4997750;28;20187;-70
2021/07/28 04:20:55;;;;;;;6.93;6.27;;;18.00;99.90;;;;;;4997793;28;21026;-70
2021/07/28 04:23:21;;;;;;;6.90;6.17;;;17.90;99.90;;;;;;4997835;28;20175;-70
2021/07/28 04:25:46;;;;;;;10.07;7.30;;;17.90;99.90;;;;;;4997687;28;20194;-70
2021/07/28 04:28:12;;;;;;;7.30;6.70;;;17.90;99.90;;;;;;4997692;28;20494;-70
2021/07/28 04:30:38;;;;;;;6.97;6.27;;;17.90;99.90;;;;;;4997681;28;20167;-70
2021/07/28 04:33:03;;;;;;;7.57;6.80;;;17.90;99.90;;;;;;4997581;28;20168;-70
2021/07/28 04:35:29;;;;;;;8.80;6.40;;;17.90;99.90;;;;;;4997483;28;20233;-70
2021/07/28 04:37:54;;;;;;;7.13;6.20;;;17.90;99.90;;;;;;4997521;28;20171;-70
2021/07/28 04:40:20;;;;;;;7.60;6.70;;;17.80;99.90;;;;;;4997346;28;20195;-70
2021/07/28 04:42:46;;;;;;;9.70;7.40;;;17.80;99.90;;;;;;4997399;28;20605;-70
2021/07/28 04:45:12;;;;;;;9.87;7.60;;;17.80;99.90;;;;;;4997375;28;20174;-70
2021/07/28 04:47:37;;;;;;;10.87;6.73;;;17.80;99.90;;;;;;4997309;28;20167;-70
2021/07/28 04:50:03;;;;;;;8.00;6.63;;;17.90;99.90;;;;;;4996288;28;20520;-70
2021/07/28 04:52:29;;;;;;;8.13;7.07;;;17.90;99.90;;;;;;4996029;28;20621;-70
2021/07/28 04:54:55;;;;;;;7.90;6.50;;;17.80;99.90;;;;;;4996029;28;20434;-70
2021/07/28 04:57:20;;;;;;;8.37;7.57;;;17.70;99.90;;;;;;4996022;28;20195;-70
2021/07/28 04:59:46;;;;;;;8.97;6.63;;;17.70;99.90;;;;;;4995850;28;20620;-70
2021/07/28 05:02:12;;;;;;;9.33;7.13;;;17.70;99.90;;;;;;4996133;28;20229;-70
2021/07/28 05:04:38;;;;;;;8.80;7.27;;;17.80;99.90;;;;;;4995904;28;20167;-70
2021/07/28 05:07:04;;;;;;;9.77;7.67;;;17.70;99.90;;;;;;4995403;28;20613;-70
2021/07/28 05:09:30;;;;;;;8.17;6.70;;;17.80;99.90;;;;;;4995837;28;20418;-70
2021/07/28 05:11:55;;;;;;;7.17;6.47;;;17.80;99.90;;;;;;4995830;28;20423;-70
2021/07/28 05:14:21;;;;;;;12.80;6.70;;;17.80;99.90;;;;;;4995762;28;20175;-71
2021/07/28 05:16:46;;;;;;;8.13;7.07;;;17.90;99.90;;;;;;4995728;28;20186;-70
2021/07/28 05:19:12;;;;;;;8.83;7.27;;;18.00;99.90;;;;;;4995611;28;20187;-70
2021/07/28 05:21:38;;;;;;;9.10;8.10;;;18.10;99.90;;;;;;4995952;28;20171;-70
2021/07/28 05:24:04;;;;;;;13.03;6.93;;;18.10;99.90;;;;;;4995591;28;20167;-70
2021/07/28 05:26:29;;;;;;;8.40;6.60;;;18.20;99.90;;;;;;4995566;28;20174;-70
2021/07/28 05:28:56;;;;;;;9.93;7.43;;;18.20;99.90;;;;;;4995759;28;20875;-70
2021/07/28 05:31:21;;;;;;;7.20;6.20;;;18.20;99.90;;;;;;4995794;28;20167;-71
2021/07/28 05:33:47;;;;;;;7.17;6.40;;;18.20;99.90;;;;;;4995438;28;20407;-70
2021/07/28 05:36:12;;;;;;;6.87;6.27;;;18.20;99.90;;;;;;4995421;28;20171;-70
2021/07/28 05:38:38;;;;;;;7.80;7.00;;;18.20;99.90;;;;;;4995289;28;20206;-70
2021/07/28 05:41:04;;;;;;;7.70;6.60;;;18.20;99.90;;;;;;4995345;28;20490;-70
2021/07/28 05:43:30;;;;;;;7.97;6.70;;;18.20;99.90;;;;;;4995275;28;20171;-70
2021/07/28 05:45:56;;;;;;;11.33;8.20;;;18.20;99.90;;;;;;4995277;28;20788;-70
2021/07/28 05:48:22;;;;;;;7.95;7.15;;;18.20;99.90;;;;;;4956527;28;1120492;-70
2021/07/28 05:50:50;;;;;;;7.53;6.83;;;18.30;99.90;;;;;;4996168;28;20160;-70
2021/07/28 05:53:15;;;;;;;8.17;7.33;;;18.40;99.90;;;;;;4996316;28;20182;-70
2021/07/28 05:55:41;;;;;;;8.30;7.03;;;18.40;99.90;;;;;;4996117;28;20402;-70
2021/07/28 05:58:07;;;;;;;8.60;6.90;;;18.40;99.90;;;;;;4996179;28;20229;-70
2021/07/28 06:00:32;;;;;;;10.23;6.63;;;18.50;99.90;;;;;;4996027;28;20167;-71
2021/07/28 06:02:58;;;;;;;7.00;6.30;;;18.50;99.90;;;;;;4995982;28;20172;-70
2021/07/28 06:05:23;;;;;;;9.47;8.50;;;18.60;99.90;;;;;;4995822;28;20167;-70
2021/07/28 06:07:49;;;;;;;10.90;7.47;;;18.60;99.90;;;;;;4995885;28;20178;-70
2021/07/28 06:10:15;;;;;;;8.43;6.53;;;18.60;99.90;;;;;;4995806;28;20621;-70
2021/07/28 06:12:41;;;;;;;9.70;8.13;;;18.50;99.90;;;;;;4996035;28;20217;-70
2021/07/28 06:15:07;;;;;;;9.17;7.70;;;18.60;99.90;;;;;;4995727;28;20167;-70
2021/07/28 06:17:33;;;;;;;14.10;7.70;;;18.60;99.90;;;;;;4995939;28;20402;-70
2021/07/28 06:19:59;;;;;;;7.97;7.17;;;18.60;99.90;;;;;;4994768;28;20454;-70
2021/07/28 06:22:24;;;;;;;10.57;7.57;;;18.60;99.90;;;;;;4995551;28;20175;-70
2021/07/28 06:24:51;;;;;;;11.83;8.70;;;18.70;99.90;;;;;;4995511;28;20203;-70
2021/07/28 06:27:17;;;;;;;10.33;9.10;;;18.70;99.90;;;;;;4995503;28;20186;-70
2021/07/28 06:29:42;;;;;;;8.40;6.93;;;18.80;99.90;;;;;;4995422;28;20499;-70
2021/07/28 06:32:08;;;;;;;8.67;6.77;;;18.80;99.90;;;;;;4995377;28;20452;-70
2021/07/28 06:34:34;;;;;;;7.17;6.47;;;18.90;99.90;;;;;;4995246;28;20171;-70
2021/07/28 06:36:59;;;;;;;11.17;7.60;;;19.00;99.90;;;;;;4995270;28;20183;-70
2021/07/28 06:39:26;;;;;;;7.73;6.93;;;19.30;99.90;;;;;;4995199;28;20230;-70
2021/07/28 06:41:52;;;;;;;6.80;6.20;;;19.40;99.90;;;;;;4995172;28;20190;-70
2021/07/28 06:44:18;;;;;;;8.10;6.93;;;19.50;99.90;;;;;;4995123;28;20928;-70
2021/07/28 06:46:43;;;;;;;7.93;7.10;;;19.60;99.90;;;;;;4995127;28;20171;-70
2021/07/28 06:49:09;;;;;;;7.60;6.90;;;19.80;99.90;;;;;;4994960;28;20262;-70
2021/07/28 06:51:35;;;;;;;8.83;7.37;;;19.80;99.90;;;;;;4995042;28;20210;-71
2021/07/28 06:54:02;;;;;;;9.80;7.97;;;19.90;99.90;;;;;;4994959;28;20641;-70
2021/07/28 06:56:28;;;;;;;8.00;7.23;;;19.90;99.90;;;;;;4995149;28;20258;-70
2021/07/28 06:58:54;;;;;;;10.60;8.27;;;19.80;99.90;;;;;;4994845;28;20489;-70
2021/07/28 07:01:20;;;;;;;8.17;7.10;;;19.70;99.90;;;;;;4994853;28;20422;-70
2021/07/28 07:03:45;;;;;;;8.00;7.40;;;19.70;99.90;;;;;;4994827;28;20258;-70
2021/07/28 07:06:11;;;;;;;8.33;7.53;;;19.70;99.90;;;;;;4994761;28;20500;-70
2021/07/28 07:08:36;;;;;;;6.57;5.97;;;19.80;99.90;;;;;;4995003;28;20660;-70
2021/07/28 07:11:02;;;;;;;8.60;7.57;;;19.90;99.90;;;;;;4994688;28;20659;-70
2021/07/28 07:13:28;;;;;;;7.10;6.40;;;20.00;99.90;;;;;;4994671;28;20179;-70
2021/07/28 07:15:53;;;;;;;6.97;6.37;;;20.00;99.90;;;;;;4994629;28;20254;-70
2021/07/28 07:18:19;;;;;;;9.50;7.50;;;20.10;99.90;;;;;;4994558;28;20543;-71
2021/07/28 07:20:45;;;;;;;7.53;6.83;;;20.10;99.90;;;;;;4994502;28;20262;-70
2021/07/28 07:23:11;;;;;;;8.57;7.80;;;20.20;99.90;;;;;;4994508;28;20163;-70
2021/07/28 07:25:37;;;;;;;8.00;7.20;;;20.30;99.90;;;;;;4994503;28;20174;-70
2021/07/28 07:28:03;;;;;;;7.50;6.70;;;20.40;99.90;;;;;;4994767;28;20751;-70
2021/07/28 07:30:29;;;;;;;8.00;7.20;;;20.40;99.90;;;;;;4994301;28;20175;-70
2021/07/28 07:35:39;;;;;;;7.83;7.07;;;20.50;99.90;;;;;;4994434;28;20229;-70
2021/07/28 07:38:04;;;;;;;7.77;6.97;;;20.50;99.90;;;;;;4994341;28;20414;-70
2021/07/28 07:40:30;;;;;;;9.17;8.00;;;20.40;99.90;;;;;;4994291;28;20227;-70
2021/07/28 07:42:56;;;;;;;9.43;7.20;;;20.40;99.90;;;;;;4994349;28;20190;-70
2021/07/28 07:45:21;;;;;;;7.97;7.17;;;20.30;99.90;;;;;;4994576;28;20206;-70
2021/07/28 07:47:47;;;;;;;8.90;8.00;;;20.40;99.90;;;;;;4994159;28;20191;-70
2021/07/28 07:50:13;;;;;;;6.77;6.27;;;20.30;99.90;;;;;;4994227;28;20202;-70
2021/07/28 07:52:39;;;;;;;8.47;7.03;;;20.30;99.90;;;;;;4994318;28;20980;-70
2021/07/28 07:55:05;;;;;;;9.57;8.57;;;20.40;99.90;;;;;;4994232;28;20512;-70
2021/07/28 07:57:32;;;;;;;8.27;7.40;;;20.30;99.90;;;;;;4994171;28;20176;-70
2021/07/28 07:59:57;;;;;;;7.20;6.60;;;20.30;99.90;;;;;;4994061;28;20453;-70
2021/07/28 08:02:23;;;;;;;6.83;6.13;;;20.40;99.90;;;;;;4994105;28;20407;-70
2021/07/28 08:04:50;;;;;;;9.20;7.83;;;20.60;99.90;;;;;;4994132;28;20178;-70
2021/07/28 08:07:16;;;;;;;7.00;6.40;;;20.70;99.90;;;;;;4994099;28;20414;-71
2021/07/28 08:09:41;;;;;;;9.37;8.50;;;20.80;99.90;;;;;;4994042;28;20421;-70
2021/07/28 08:12:07;;;;;;;13.70;8.87;;;20.80;99.90;;;;;;4993950;28;20238;-70
2021/07/28 08:14:33;;;;;;;8.23;7.43;;;20.70;99.90;;;;;;4994036;28;20172;-70
2021/07/28 08:16:58;;;;;;;9.43;8.63;;;20.90;99.90;;;;;;4993943;28;20510;-70
2021/07/28 08:19:24;;;;;;;8.57;7.77;;;21.00;99.90;;;;;;4993999;28;20302;-70
2021/07/28 08:21:49;;;;;;;9.00;8.10;;;21.10;99.90;;;;;;4993981;28;20183;-70
2021/07/28 08:24:16;;;;;;;8.67;7.90;;;21.10;99.90;;;;;;4994263;28;20179;-70
2021/07/28 08:26:42;;;;;;;8.27;7.47;;;21.00;99.90;;;;;;4993943;28;20160;-70
2021/07/28 08:29:10;;;;;;;7.70;7.10;;;21.10;99.90;;;;;;4993954;28;20413;-70
2021/07/28 08:31:36;;;;;;;10.10;8.20;;;21.10;99.90;;;;;;4993904;28;20717;-70
2021/07/28 08:34:02;;;;;;;8.50;7.60;;;21.00;99.90;;;;;;4993954;28;20436;-70
2021/07/28 08:36:27;;;;;;;8.57;7.90;;;20.90;99.90;;;;;;4993803;28;20174;-70
2021/07/28 08:38:53;;;;;;;8.87;8.13;;;20.90;99.90;;;;;;4993807;28;20290;-70
2021/07/28 08:41:22;;;;;;;9.13;7.73;;;20.80;99.90;;;;;;4993873;28;20230;-70
2021/07/28 08:43:53;;;;;;;7.13;6.63;;;20.70;99.90;;;;;;4979821;28;20175;-70
2021/07/28 08:46:23;;;;;;;9.20;7.00;;;20.90;99.90;;;;;;4997657;28;20399;-71
2021/07/28 08:48:49;;;;;;;7.40;6.70;;;20.90;99.90;;;;;;4997226;28;20896;-70
2021/07/28 08:51:17;;;;;;;6.47;5.87;;;20.80;99.90;;;;;;4980179;28;20429;-70
2021/07/28 08:53:43;;;;;;;6.73;6.23;;;20.70;99.90;;;;;;4997462;28;20521;-70
2021/07/28 08:56:09;;;;;;;6.73;6.23;;;20.90;99.90;;;;;;4997238;28;20398;-70
2021/07/28 08:58:35;;;;;;;7.60;6.33;;;20.90;99.90;;;;;;4997114;28;20206;-70
2021/07/28 09:01:00;;;;;;;6.50;6.00;;;21.00;99.90;;;;;;4997188;28;20763;-70
2021/07/28 09:03:26;;;;;;;6.73;5.97;;;21.10;99.90;;;;;;4997122;28;20613;-70
2021/07/28 09:05:56;;;;;;;7.70;5.67;;;21.30;99.90;;;;;;4997033;28;20171;-70
2021/07/28 09:08:29;;;;;;;6.53;4.80;;;21.60;99.90;;;;;;4996966;28;20159;-70
2021/07/28 09:11:04;;;;;;;6.87;6.17;;;21.90;99.90;;;;;;4996936;28;20409;-71
2021/07/28 09:13:36;;;;;;;5.80;5.40;;;22.00;99.90;;;;;;4997085;28;20438;-70
2021/07/28 09:16:04;;;;;;;5.77;5.30;;;22.10;99.90;;;;;;4996874;28;20410;-71
2021/07/28 09:18:35;;;;;;;6.20;5.60;;;22.00;99.90;;;;;;4996693;28;20450;-70
2021/07/28 09:21:06;;;;;;;6.37;5.97;;;22.00;99.90;;;;;;4996655;28;20411;-70
2021/07/28 09:23:36;;;;;;;5.70;5.30;;;21.80;99.90;;;;;;4996781;28;20449;-70
2021/07/28 09:26:05;;;;;;;6.30;5.50;;;21.70;99.90;;;;;;4996676;28;20387;-70
2021/07/28 09:28:31;;;;;;;5.93;5.53;;;21.60;99.90;;;;;;4996606;28;20436;-71
2021/07/28 09:30:58;;;;;;;5.60;4.87;;;21.70;99.90;;;;;;4996575;28;20403;-70
2021/07/28 09:33:23;;;;;;;6.67;6.17;;;21.80;99.90;;;;;;4996555;28;20734;-70
2021/07/28 09:35:52;;;;;;;6.47;5.97;;;21.80;99.90;;;;;;4996421;28;20407;-71
2021/07/28 09:38:43;;;;;;;5.97;5.40;;;21.80;99.90;;;;;;4996349;28;20553;-70
2021/07/28 09:41:12;;;;;;;6.60;6.00;;;21.80;99.90;;;;;;4996345;28;20410;-70
2021/07/28 09:43:55;;;;;;;5.90;5.50;;;21.80;99.90;;;;;;4996280;28;20733;-70
2021/07/28 09:46:23;;;;;;;5.90;5.40;;;21.70;99.90;;;;;;4996171;28;20883;-70
2021/07/28 09:48:49;;;;;;;5.77;5.37;;;21.70;99.90;;;;;;4996133;28;20815;-70
2021/07/28 09:51:26;;;;;;;6.50;6.00;;;21.70;99.90;;;;;;4996219;28;20805;-70
2021/07/28 09:54:03;;;;;;;4.97;4.70;;;21.80;99.90;;;;;;4994996;28;20737;-70
2021/07/28 09:56:51;;;;;;;5.20;4.70;;;22.00;99.90;;;;;;4996176;28;20483;-71
2021/07/28 09:59:18;;;;;;;6.37;4.73;;;22.30;99.90;;;;;;4996276;28;20446;-71
2021/07/28 10:01:45;;;;;;;6.20;5.03;;;22.60;99.90;;;;;;4996576;28;20403;-71
2021/07/28 10:04:12;;;;;;;4.70;4.30;;;22.70;99.90;;;;;;4996251;28;20406;-70
2021/07/28 10:06:40;;;;;;;6.60;5.00;;;22.50;99.90;;;;;;4995916;28;20907;-70
2021/07/28 10:09:08;;;;;;;6.70;5.47;;;22.30;99.90;;;;;;4995893;28;20421;-70
2021/07/28 10:11:34;;;;;;;5.47;4.97;;;22.20;99.90;;;;;;4995832;28;20474;-70
2021/07/28 10:14:01;;;;;;;5.87;5.43;;;22.10;99.90;;;;;;4995772;28;20410;-70
2021/07/28 10:16:28;;;;;;;5.33;4.83;;;22.20;99.90;;;;;;4995683;28;20716;-70
2021/07/28 10:18:55;;;;;;;4.73;4.37;;;22.30;99.90;;;;;;4995600;28;20926;-70
2021/07/28 10:21:21;;;;;;;4.63;4.33;;;22.30;99.90;;;;;;4995605;28;20411;-70
2021/07/28 10:23:48;;;;;;;6.10;5.57;;;22.30;99.90;;;;;;4995544;28;20407;-70
2021/07/28 10:26:17;;;;;;;4.67;4.37;;;22.40;99.90;;;;;;4995526;28;20504;-70
2021/07/28 10:28:48;;;;;;;5.43;4.90;;;22.40;99.90;;;;;;4995458;28;20428;-71
2021/07/28 10:31:22;;;;;;;4.80;4.40;;;22.50;99.90;;;;;;4995480;28;20731;-70
2021/07/28 10:33:53;;;;;;;4.77;4.27;;;22.60;99.90;;;;;;4995342;28;20415;-70
2021/07/28 10:36:40;;;;;;;4.83;4.53;;;22.70;99.90;;;;;;4995408;28;20402;-70
2021/07/28 10:39:06;;;;;;;5.30;4.90;;;22.90;99.90;;;;;;4945887;28;20469;-70
2021/07/28 10:41:43;;;;;;;5.80;5.30;;;22.80;99.90;;;;;;4995247;28;20432;-70
2021/07/28 10:44:20;;;;;;;5.17;4.87;;;22.60;99.90;;;;;;4995217;28;20158;-70
2021/07/28 10:46:55;;;;;;;6.20;5.17;;;22.40;99.90;;;;;;4995191;28;20409;-70
2021/07/28 10:49:44;;;;;;;5.27;4.73;;;22.40;99.90;;;;;;4995043;28;20560;-70
2021/07/28 10:52:37;;;;;;;8.60;5.67;;;22.70;99.90;;;;;;4980342;28;20914;-71
2021/07/28 10:55:03;;;;;;;5.53;5.10;;;23.00;99.90;;;;;;4995092;28;20399;-70
2021/07/28 10:57:34;;;;;;;5.00;4.60;;;23.10;99.90;;;;;;4994900;28;20421;-70
2021/07/28 11:00:00;;;;;;;5.07;4.67;;;23.30;99.90;;;;;;4994866;28;20534;-70
2021/07/28 11:02:57;;;;;;;4.97;4.57;;;23.40;99.90;;;;;;4994945;28;20461;-70
2021/07/28 11:05:24;;;;;;;4.60;4.10;;;23.50;99.90;;;;;;4994499;28;20398;-70
2021/07/28 11:08:05;;;;;;;4.23;4.03;;;23.70;99.90;;;;;;4995071;28;20410;-70
2021/07/28 11:10:54;;;;;;;4.10;3.80;;;24.10;99.90;;;;;;4994976;28;20406;-70
2021/07/28 11:13:31;;;;;;;4.83;4.00;;;24.20;99.90;;;;;;4994652;28;20445;-70
2021/07/28 11:16:00;;;;;;;6.40;4.60;;;24.10;99.90;;;;;;4994517;28;20434;-71
2021/07/28 11:18:49;;;;;;;3.90;3.57;;;24.10;99.90;;;;;;4994581;28;20418;-70
2021/07/28 11:21:21;;;;;;;4.17;3.77;;;24.10;99.90;;;;;;4994578;28;20405;-70
2021/07/28 11:23:49;;;;;;;4.60;3.80;;;24.10;99.90;;;;;;4994581;28;20402;-70
2021/07/28 11:26:26;;;;;;;4.30;4.00;;;24.00;99.90;;;;;;4994519;28;20406;-71
2021/07/28 11:28:57;;;;;;;4.73;4.33;;;23.90;99.90;;;;;;4994846;28;20404;-70
2021/07/28 11:31:45;;;;;;;4.50;4.20;;;23.80;99.90;;;;;;4994428;28;20497;-70
2021/07/28 11:34:20;;;;;;;4.43;4.13;;;23.80;99.90;;;;;;4994468;28;20423;-70
2021/07/28 11:37:02;;;;;;;4.43;4.13;;;23.70;99.90;;;;;;4994349;28;20903;-70
2021/07/28 11:39:28;;;;;;;3.47;3.33;;;23.80;99.90;;;;;;4994545;28;20537;-70
2021/07/28 11:42:10;;;;;;;5.77;5.23;;;23.90;99.90;;;;;;4994594;28;20406;-70
2021/07/28 11:44:43;;;;;;;5.20;4.80;;;24.10;99.90;;;;;;4994343;28;20383;-70
2021/07/28 11:47:10;;;;;;;4.67;4.27;;;24.20;99.90;;;;;;4994269;28;20391;-70
2021/07/28 11:49:37;;;;;;;4.10;3.90;;;23.90;99.90;;;;;;4994134;28;20473;-70
2021/07/28 11:52:03;;;;;;;6.50;4.50;;;23.70;99.90;;;;;;4994283;28;20418;-71
2021/07/28 11:54:31;;;;;;;6.70;4.33;;;23.80;99.90;;;;;;4994174;28;20505;-70
2021/07/28 11:56:56;;;;;;;4.37;4.00;;;24.10;99.90;;;;;;4994199;28;20487;-70
2021/07/28 11:59:25;;;;;;;3.87;3.67;;;24.30;99.90;;;;;;4994103;28;20517;-70
2021/07/28 12:01:55;;;;;;;4.80;4.47;;;24.40;99.90;;;;;;4994208;28;20581;-70
2021/07/28 12:04:26;;;;;;;3.60;3.40;;;24.80;99.90;;;;;;4994207;28;20433;-70
2021/07/28 12:06:53;;;;;;;5.03;4.60;;;25.00;99.90;;;;;;4994039;28;20399;-70
2021/07/28 12:09:23;;;;;;;4.07;3.80;;;24.90;99.90;;;;;;4994357;28;20433;-70
2021/07/28 12:11:50;;;;;;;4.07;3.63;;;25.20;99.90;;;;;;4994079;28;20407;-71
2021/07/28 12:14:40;;;;;;;3.90;3.70;;;25.40;99.90;;;;;;4994058;28;20418;-70
2021/07/28 12:17:20;;;;;;;5.13;3.03;;;25.80;99.90;;;;;;4982684;28;20903;-70
2021/07/28 12:20:03;;;;;;;4.43;3.60;;;25.80;99.90;;;;;;4997843;28;20500;-70
2021/07/28 12:22:40;;;;;;;4.00;3.27;;;25.80;99.90;;;;;;4998046;28;20410;-70
2021/07/28 12:25:23;;;;;;;3.10;2.90;;;25.80;99.90;;;;;;4997778;28;20797;-70
2021/07/28 12:28:01;;;;;;;3.77;3.57;;;25.90;99.90;;;;;;4997756;28;20393;-70
2021/07/28 12:30:37;;;;;;;3.60;3.30;;;25.90;99.90;;;;;;4997691;28;20390;-70
2021/07/28 12:33:10;;;;;;;3.57;3.27;;;25.70;99.90;;;;;;4997897;28;20520;-70
2021/07/28 12:35:41;;;;;;;3.47;3.27;;;25.40;99.90;;;;;;4997632;28;20493;-70
2021/07/28 12:38:21;;;;;;;3.40;3.20;;;25.10;99.90;;;;;;4997547;28;20396;-70
2021/07/28 12:41:06;;;;;;;3.13;2.80;;;25.00;99.90;;;;;;4980478;28;20477;-70
2021/07/28 12:43:34;;;;;;;4.00;3.70;;;24.80;99.90;;;;;;4997734;28;20739;-70
2021/07/28 12:46:04;;;;;;;3.67;3.40;;;24.90;99.90;;;;;;4997668;28;20461;-71
2021/07/28 12:48:32;;;;;;;4.00;3.70;;;24.80;99.90;;;;;;4997245;28;20422;-71
2021/07/28 12:50:59;;;;;;;3.80;3.60;;;24.70;99.90;;;;;;4997304;28;20425;-70
2021/07/28 12:53:26;;;;;;;3.70;3.50;;;24.60;99.90;;;;;;4997231;28;20410;-70
2021/07/28 12:55:52;;;;;;;3.97;3.77;;;24.50;99.90;;;;;;4997460;28;20799;-70